createdAt,value
2022-10-23T00:02:20.724Z,11.87
2022-10-23T00:04:54.082Z,11.84
2022-10-23T00:07:24.748Z,11.80
2022-10-23T00:09:56.190Z,11.76
2022-10-23T00:12:28.122Z,11.73
2022-10-23T00:14:58.439Z,11.71
2022-10-23T00:17:32.665Z,11.69
2022-10-23T00:20:02.999Z,11.66
2022-10-23T00:22:33.756Z,11.64
2022-10-23T00:25:04.294Z,11.63
2022-10-23T00:27:35.317Z,11.62
2022-10-23T00:30:07.318Z,11.62
2022-10-23T00:32:37.781Z,11.62
2022-10-23T00:35:09.375Z,11.61
2022-10-23T00:37:40.248Z,11.60
2022-10-23T00:40:13.174Z,11.59
2022-10-23T00:42:43.832Z,11.59
2022-10-23T00:45:24.230Z,11.55
2022-10-23T00:47:55.513Z,11.57
2022-10-23T00:50:27.333Z,11.57
2022-10-23T00:53:00.446Z,11.55
2022-10-23T00:55:32.039Z,11.54
2022-10-23T00:58:02.436Z,11.51
2022-10-23T01:00:42.898Z,11.48
2022-10-23T01:03:13.781Z,11.45
2022-10-23T01:05:50.426Z,11.43
2022-10-23T01:08:29.442Z,11.41
2022-10-23T01:11:07.144Z,11.39
2022-10-23T01:13:44.900Z,11.36
2022-10-23T01:16:23.149Z,11.36
2022-10-23T01:19:00.110Z,11.35
2022-10-23T01:21:41.451Z,11.35
2022-10-23T01:24:22.661Z,11.35
2022-10-23T01:27:03.747Z,11.33
2022-10-23T01:29:41.122Z,11.33
2022-10-23T01:32:16.907Z,11.28
2022-10-23T01:34:52.964Z,11.24
2022-10-23T01:37:30.384Z,11.22
2022-10-23T01:40:06.818Z,11.20
2022-10-23T01:42:44.652Z,11.20
2022-10-23T01:45:20.211Z,11.20
2022-10-23T01:47:51.844Z,11.21
2022-10-23T01:50:25.837Z,11.21
2022-10-23T01:52:56.796Z,11.21
2022-10-23T01:55:27.818Z,11.21
2022-10-23T01:58:00.626Z,11.21
2022-10-23T02:00:31.717Z,11.22
2022-10-23T02:03:04.570Z,11.22
2022-10-23T02:05:35.268Z,11.23
2022-10-23T02:08:07.028Z,11.23
2022-10-23T02:10:49.932Z,11.24
2022-10-23T02:13:26.662Z,11.25
2022-10-23T02:16:06.967Z,11.23
2022-10-23T02:18:47.112Z,11.22
2022-10-23T02:21:27.702Z,11.21
2022-10-23T02:24:03.656Z,11.20
2022-10-23T02:26:39.287Z,11.17
2022-10-23T02:29:14.350Z,11.13
2022-10-23T02:31:44.975Z,11.10
2022-10-23T02:34:15.585Z,11.06
2022-10-23T02:36:46.068Z,11.03
2022-10-23T02:39:16.412Z,11.00
2022-10-23T02:41:52.296Z,10.96
2022-10-23T02:44:33.385Z,10.93
2022-10-23T02:47:26.749Z,10.90
2022-10-23T02:50:05.014Z,10.88
2022-10-23T02:52:42.780Z,10.88
2022-10-23T02:55:29.338Z,10.87
2022-10-23T02:58:08.185Z,10.85
2022-10-23T03:00:43.746Z,10.83
2022-10-23T03:03:18.649Z,10.83
2022-10-23T03:05:49.119Z,10.82
2022-10-23T03:08:19.595Z,10.82
2022-10-23T03:10:51.365Z,10.82
2022-10-23T03:13:21.889Z,10.82
2022-10-23T03:15:53.160Z,10.81
2022-10-23T03:18:23.856Z,10.79
2022-10-23T03:20:54.538Z,10.77
2022-10-23T03:23:25.228Z,10.76
2022-10-23T03:25:56.485Z,10.75
2022-10-23T03:28:27.105Z,10.73
2022-10-23T03:30:57.497Z,10.73
2022-10-23T03:33:27.815Z,10.72
2022-10-23T03:35:58.202Z,10.71
2022-10-23T03:38:28.640Z,10.71
2022-10-23T03:40:58.978Z,10.70
2022-10-23T03:43:29.314Z,10.68
2022-10-23T03:46:01.158Z,10.68
2022-10-23T03:48:32.669Z,10.66
2022-10-23T03:51:03.007Z,10.62
2022-10-23T03:53:33.537Z,10.60
2022-10-23T03:56:04.138Z,10.57
2022-10-23T03:58:34.802Z,10.55
2022-10-23T04:01:05.682Z,10.54
2022-10-23T04:03:36.589Z,10.52
2022-10-23T04:06:08.236Z,10.50
2022-10-23T04:08:39.093Z,10.47
2022-10-23T04:11:10.084Z,10.46
2022-10-23T04:13:41.146Z,10.45
2022-10-23T04:16:11.639Z,10.42
2022-10-23T04:18:44.017Z,10.41
2022-10-23T04:21:14.696Z,10.40
2022-10-23T04:23:45.103Z,10.38
2022-10-23T04:26:15.473Z,10.36
2022-10-23T04:28:45.872Z,10.35
2022-10-23T04:31:16.292Z,10.33
2022-10-23T04:33:47.013Z,10.32
2022-10-23T04:36:17.818Z,10.30
2022-10-23T04:38:48.747Z,10.30
2022-10-23T04:41:19.664Z,10.29
2022-10-23T04:43:50.104Z,10.29
2022-10-23T04:46:20.639Z,10.28
2022-10-23T04:48:51.072Z,10.27
2022-10-23T04:51:21.549Z,10.26
2022-10-23T04:53:51.959Z,10.25
2022-10-23T04:56:22.780Z,10.24
2022-10-23T04:58:54.841Z,10.23
2022-10-23T05:01:25.711Z,10.21
2022-10-23T05:03:57.049Z,10.20
2022-10-23T05:06:28.286Z,10.19
2022-10-23T05:08:58.706Z,10.19
2022-10-23T05:11:29.518Z,10.16
2022-10-23T05:13:59.985Z,10.15
2022-10-23T05:16:38.696Z,10.15
2022-10-23T05:19:12.386Z,10.12
2022-10-23T05:21:44.076Z,10.10
2022-10-23T05:24:14.542Z,10.09
2022-10-23T05:26:45.283Z,10.08
2022-10-23T05:29:16.109Z,10.08
2022-10-23T05:31:47.862Z,10.07
2022-10-23T05:34:21.841Z,10.06
2022-10-23T05:36:53.312Z,10.06
2022-10-23T05:39:24.351Z,10.06
2022-10-23T05:41:56.203Z,10.06
2022-10-23T05:44:27.461Z,10.06
2022-10-23T05:46:58.287Z,10.05
2022-10-23T05:49:28.774Z,10.04
2022-10-23T05:51:59.557Z,10.04
2022-10-23T05:54:30.880Z,10.05
2022-10-23T05:57:01.650Z,10.06
2022-10-23T05:59:32.349Z,10.07
2022-10-23T06:02:02.767Z,10.10
2022-10-23T06:04:34.742Z,10.13
2022-10-23T06:07:05.357Z,10.13
2022-10-23T06:09:36.124Z,10.16
2022-10-23T06:12:07.506Z,10.19
2022-10-23T06:14:38.273Z,10.22
2022-10-23T06:17:09.112Z,10.24
2022-10-23T06:19:39.605Z,10.26
2022-10-23T06:22:10.156Z,10.28
2022-10-23T06:24:42.147Z,10.30
2022-10-23T06:27:12.557Z,10.32
2022-10-23T06:29:43.308Z,10.33
2022-10-23T06:32:13.721Z,10.35
2022-10-23T06:34:44.421Z,10.38
2022-10-23T06:37:15.341Z,10.40
2022-10-23T06:39:46.549Z,10.41
2022-10-23T06:42:17.897Z,10.43
2022-10-23T06:44:48.422Z,10.45
2022-10-23T06:47:19.087Z,10.46
2022-10-23T06:49:50.355Z,10.47
2022-10-23T06:52:42.041Z,10.45
2022-10-23T06:55:12.838Z,10.47
2022-10-23T06:57:44.217Z,10.49
2022-10-23T07:00:16.188Z,10.51
2022-10-23T07:02:47.473Z,10.53
2022-10-23T07:05:18.140Z,10.56
2022-10-23T07:07:48.957Z,10.58
2022-10-23T07:10:19.667Z,10.60
2022-10-23T07:12:50.113Z,10.63
2022-10-23T07:15:20.669Z,10.64
2022-10-23T07:17:51.417Z,10.65
2022-10-23T07:20:22.320Z,10.67
2022-10-23T07:22:55.401Z,10.69
2022-10-23T07:25:27.508Z,10.72
2022-10-23T07:27:57.997Z,10.77
2022-10-23T07:30:28.490Z,10.82
2022-10-23T07:32:59.257Z,10.86
2022-10-23T07:35:32.990Z,10.89
2022-10-23T07:38:06.095Z,10.93
2022-10-23T07:40:37.347Z,10.98
2022-10-23T07:43:08.051Z,11.03
2022-10-23T07:45:38.820Z,11.06
2022-10-23T07:48:09.346Z,11.09
2022-10-23T07:50:41.408Z,11.15
2022-10-23T07:53:17.864Z,11.21
2022-10-23T07:55:55.004Z,11.28
2022-10-23T07:58:26.569Z,11.34
2022-10-23T08:01:00.555Z,11.40
2022-10-23T08:03:32.721Z,11.45
2022-10-23T08:06:03.195Z,11.52
2022-10-23T08:08:33.661Z,11.58
2022-10-23T08:11:04.209Z,11.64
2022-10-23T08:13:35.007Z,11.71
2022-10-23T08:16:05.769Z,11.78
2022-10-23T08:18:36.872Z,11.85
2022-10-23T08:21:07.621Z,11.92
2022-10-23T08:23:38.103Z,11.98
2022-10-23T08:26:09.619Z,12.04
2022-10-23T08:28:40.386Z,12.13
2022-10-23T08:31:13.018Z,12.22
2022-10-23T08:33:44.049Z,12.28
2022-10-23T08:36:21.275Z,12.36
2022-10-23T08:38:53.627Z,12.43
2022-10-23T08:41:29.707Z,12.51
2022-10-23T08:44:09.442Z,12.58
2022-10-23T08:46:43.681Z,12.65
2022-10-23T08:49:31.879Z,12.74
2022-10-23T08:52:11.719Z,12.82
2022-10-23T08:54:53.289Z,12.90
2022-10-23T08:57:33.338Z,12.96
2022-10-23T09:00:09.130Z,13.04
2022-10-23T09:02:44.919Z,13.10
2022-10-23T09:05:19.124Z,13.14
2022-10-23T09:08:08.576Z,13.22
2022-10-23T09:10:54.792Z,13.28
2022-10-23T09:13:47.439Z,13.36
2022-10-23T09:16:30.691Z,13.43
2022-10-23T09:19:01.642Z,13.51
2022-10-23T09:21:33.715Z,13.56
2022-10-23T09:24:04.175Z,13.62
2022-10-23T09:26:34.852Z,13.67
2022-10-23T09:29:21.936Z,13.72
2022-10-23T09:31:54.666Z,13.80
2022-10-23T09:34:27.354Z,13.87
2022-10-23T09:37:00.814Z,13.94
2022-10-23T09:39:33.515Z,14.00
2022-10-23T09:42:15.684Z,14.07
2022-10-23T09:44:53.050Z,14.12
2022-10-23T09:47:25.638Z,14.18
2022-10-23T09:49:57.490Z,14.24
2022-10-23T09:52:34.223Z,14.28
2022-10-23T09:55:20.313Z,14.31
2022-10-23T09:57:51.204Z,14.37
2022-10-23T10:00:24.831Z,14.41
2022-10-23T10:03:01.566Z,14.43
2022-10-23T10:05:34.195Z,14.46
2022-10-23T10:08:16.511Z,14.49
2022-10-23T10:10:51.181Z,14.50
2022-10-23T10:13:56.860Z,14.52
2022-10-23T10:16:34.617Z,14.55
2022-10-23T10:19:13.579Z,14.56
2022-10-23T10:21:50.799Z,14.59
2022-10-23T10:24:27.099Z,14.64
2022-10-23T10:27:04.178Z,14.69
2022-10-23T10:29:46.887Z,14.74
2022-10-23T10:32:32.314Z,14.80
2022-10-23T10:35:14.759Z,14.86
2022-10-23T10:38:02.868Z,14.92
2022-10-23T10:40:36.853Z,14.97
2022-10-23T10:43:31.938Z,15.01
2022-10-23T10:46:12.746Z,15.05
2022-10-23T10:48:57.912Z,15.09
2022-10-23T10:51:37.959Z,15.13
2022-10-23T10:54:26.247Z,15.17
2022-10-23T10:56:59.816Z,15.21
2022-10-23T10:59:32.069Z,15.26
2022-10-23T11:02:14.868Z,15.30
2022-10-23T11:04:52.825Z,15.36
2022-10-23T11:07:27.871Z,15.42
2022-10-23T11:09:59.982Z,15.47
2022-10-23T11:12:31.016Z,15.52
2022-10-23T11:15:02.496Z,15.58
2022-10-23T11:17:40.124Z,15.63
2022-10-23T11:20:28.269Z,15.70
2022-10-23T11:23:08.458Z,15.79
2022-10-23T11:25:59.203Z,15.87
2022-10-23T11:28:46.538Z,15.96
2022-10-23T11:31:26.109Z,16.03
2022-10-23T11:34:20.549Z,16.09
2022-10-23T11:36:54.173Z,16.16
2022-10-23T11:39:29.403Z,16.21
2022-10-23T11:42:01.775Z,16.24
2022-10-23T11:44:44.524Z,16.29
2022-10-23T11:47:38.949Z,16.35
2022-10-23T11:50:28.805Z,16.40
2022-10-23T11:53:19.932Z,16.44
2022-10-23T11:56:06.668Z,16.49
2022-10-23T11:58:49.978Z,16.55
2022-10-23T12:01:35.111Z,16.61
2022-10-23T12:04:19.651Z,16.69
2022-10-23T12:06:52.262Z,16.78
2022-10-23T12:09:29.676Z,16.87
2022-10-23T12:12:17.862Z,16.94
2022-10-23T12:14:49.855Z,17.01
2022-10-23T12:17:37.795Z,17.05
2022-10-23T12:20:24.182Z,17.10
2022-10-23T12:23:17.017Z,17.14
2022-10-23T12:26:03.918Z,17.19
2022-10-23T12:28:41.910Z,17.22
2022-10-23T12:31:29.968Z,17.24
2022-10-23T12:34:10.088Z,17.25
2022-10-23T12:37:09.911Z,17.25
2022-10-23T12:39:40.836Z,17.26
2022-10-23T12:42:17.044Z,17.25
2022-10-23T12:44:47.860Z,17.27
2022-10-23T12:47:20.413Z,17.27
2022-10-23T12:49:52.957Z,17.29
2022-10-23T12:52:25.290Z,17.29
2022-10-23T12:54:55.879Z,17.30
2022-10-23T12:57:28.289Z,17.30
2022-10-23T13:00:04.634Z,17.30
2022-10-23T13:02:35.226Z,17.30
2022-10-23T13:05:09.093Z,17.31
2022-10-23T13:07:44.262Z,17.31
2022-10-23T13:10:17.416Z,17.32
2022-10-23T13:12:55.943Z,17.32
2022-10-23T13:15:27.072Z,17.32
2022-10-23T13:18:07.007Z,17.34
2022-10-23T13:20:38.966Z,17.34
2022-10-23T13:23:19.416Z,17.36
2022-10-23T13:25:58.102Z,17.37
2022-10-23T13:28:30.293Z,17.38
2022-10-23T13:31:07.542Z,17.39
2022-10-23T13:33:40.800Z,17.40
2022-10-23T13:36:27.353Z,17.41
2022-10-23T13:39:13.442Z,17.42
2022-10-23T13:41:45.601Z,17.42
2022-10-23T13:44:17.614Z,17.40
2022-10-23T13:46:49.130Z,17.38
2022-10-23T13:49:19.864Z,17.38
2022-10-23T13:51:52.346Z,17.37
2022-10-23T13:54:25.614Z,17.36
2022-10-23T13:56:57.181Z,17.34
2022-10-23T13:59:27.633Z,17.33
2022-10-23T14:01:58.422Z,17.32
2022-10-23T14:04:29.179Z,17.32
2022-10-23T14:06:59.550Z,17.30
2022-10-23T14:09:30.096Z,17.29
2022-10-23T14:12:00.849Z,17.28
2022-10-23T14:14:31.315Z,17.28
2022-10-23T14:17:02.068Z,17.27
2022-10-23T14:19:33.798Z,17.26
2022-10-23T14:22:04.681Z,17.24
2022-10-23T14:24:35.070Z,17.22
2022-10-23T14:27:05.577Z,17.20
2022-10-23T14:29:36.322Z,17.17
2022-10-23T14:32:07.480Z,17.14
2022-10-23T14:34:39.458Z,17.11
2022-10-23T14:37:10.587Z,17.09
2022-10-23T14:39:41.425Z,17.08
2022-10-23T14:42:13.771Z,17.05
2022-10-23T14:44:44.958Z,17.05
2022-10-23T14:47:15.965Z,17.05
2022-10-23T14:49:49.344Z,17.03
2022-10-23T14:52:20.286Z,17.02
2022-10-23T14:54:51.385Z,17.01
2022-10-23T14:57:22.454Z,17.00
2022-10-23T14:59:53.040Z,16.99
2022-10-23T15:02:23.450Z,16.98
2022-10-23T15:04:53.872Z,16.98
2022-10-23T15:07:24.332Z,16.98
2022-10-23T15:09:55.460Z,16.98
2022-10-23T15:12:26.105Z,16.97
2022-10-23T15:14:56.868Z,16.96
2022-10-23T15:17:27.719Z,16.95
2022-10-23T15:19:58.066Z,16.94
2022-10-23T15:22:28.580Z,16.92
2022-10-23T15:24:58.961Z,16.90
2022-10-23T15:27:29.531Z,16.88
2022-10-23T15:30:00.007Z,16.86
2022-10-23T15:32:30.685Z,16.84
2022-10-23T15:35:01.074Z,16.82
2022-10-23T15:37:31.870Z,16.79
2022-10-23T15:40:03.042Z,16.77
2022-10-23T15:42:33.776Z,16.74
2022-10-23T15:45:04.344Z,16.72
2022-10-23T15:47:34.773Z,16.69
2022-10-23T15:50:05.775Z,16.67
2022-10-23T15:52:36.825Z,16.64
2022-10-23T15:55:11.523Z,16.63
2022-10-23T15:57:42.352Z,16.61
2022-10-23T16:00:19.585Z,16.59
2022-10-23T16:02:50.879Z,16.57
2022-10-23T16:05:21.804Z,16.54
2022-10-23T16:07:52.393Z,16.51
2022-10-23T16:10:23.479Z,16.48
2022-10-23T16:12:55.015Z,16.44
2022-10-23T16:15:25.646Z,16.41
2022-10-23T16:17:56.120Z,16.38
2022-10-23T16:20:27.268Z,16.34
2022-10-23T16:22:57.990Z,16.30
2022-10-23T16:25:28.740Z,16.27
2022-10-23T16:28:00.676Z,16.24
2022-10-23T16:30:31.769Z,16.19
2022-10-23T16:33:02.231Z,16.16
2022-10-23T16:35:32.853Z,16.12
2022-10-23T16:38:03.289Z,16.08
2022-10-23T16:40:33.776Z,16.04
2022-10-23T16:43:04.461Z,16.01
2022-10-23T16:45:37.074Z,15.99
2022-10-23T16:48:08.948Z,15.97
2022-10-23T16:50:41.811Z,15.94
2022-10-23T16:53:12.346Z,15.92
2022-10-23T16:55:43.913Z,15.90
2022-10-23T16:58:14.726Z,15.88
2022-10-23T17:00:45.542Z,15.85
2022-10-23T17:03:16.582Z,15.82
2022-10-23T17:05:47.242Z,15.77
2022-10-23T17:08:17.754Z,15.73
2022-10-23T17:10:48.472Z,15.71
2022-10-23T17:13:19.217Z,15.68
2022-10-23T17:15:49.911Z,15.64
2022-10-23T17:18:20.300Z,15.60
2022-10-23T17:20:59.689Z,15.58
2022-10-23T17:23:31.053Z,15.55
2022-10-23T17:26:01.824Z,15.52
2022-10-23T17:28:34.105Z,15.48
2022-10-23T17:31:04.992Z,15.45
2022-10-23T17:33:35.783Z,15.41
2022-10-23T17:36:07.348Z,15.37
2022-10-23T17:38:39.137Z,15.34
2022-10-23T17:41:11.904Z,15.30
2022-10-23T17:43:43.055Z,15.27
2022-10-23T17:46:15.099Z,15.23
2022-10-23T17:48:45.734Z,15.20
2022-10-23T17:51:18.702Z,15.15
2022-10-23T17:53:51.393Z,15.12
2022-10-23T17:56:24.577Z,15.08
2022-10-23T17:58:56.797Z,15.05
2022-10-23T18:01:29.893Z,15.03
2022-10-23T18:04:03.194Z,15.01
2022-10-23T18:06:36.013Z,15.00
2022-10-23T18:09:07.490Z,14.99
2022-10-23T18:11:45.198Z,14.99
2022-10-23T18:14:19.423Z,14.99
2022-10-23T18:16:50.818Z,15.00
2022-10-23T18:19:22.257Z,15.00
2022-10-23T18:21:53.492Z,15.00
2022-10-23T18:24:24.195Z,15.00
2022-10-23T18:26:54.594Z,14.98
2022-10-23T18:29:25.363Z,14.99
2022-10-23T18:31:56.249Z,15.00
2022-10-23T18:34:27.640Z,15.00
2022-10-23T18:36:58.485Z,14.99
2022-10-23T18:39:29.182Z,14.99
2022-10-23T18:42:00.109Z,14.99
2022-10-23T18:44:30.642Z,14.99
2022-10-23T18:47:01.460Z,14.98
2022-10-23T18:49:31.949Z,14.98
2022-10-23T18:52:03.403Z,14.97
2022-10-23T18:54:34.298Z,14.97
2022-10-23T18:57:05.562Z,14.96
2022-10-23T18:59:36.937Z,14.93
2022-10-23T19:02:07.756Z,14.89
2022-10-23T19:04:38.985Z,14.87
2022-10-23T19:07:09.420Z,14.85
2022-10-23T19:09:42.520Z,14.83
2022-10-23T19:14:45.754Z,14.83
2022-10-23T19:17:20.063Z,14.83
2022-10-23T19:19:56.649Z,14.83
2022-10-23T19:22:28.692Z,14.83
2022-10-23T19:25:04.026Z,14.84
2022-10-23T19:27:34.459Z,14.83
2022-10-23T19:30:12.660Z,14.81
2022-10-23T19:32:45.008Z,14.82
2022-10-23T19:35:18.340Z,14.82
2022-10-23T19:37:49.389Z,14.81
2022-10-23T19:40:20.210Z,14.81
2022-10-23T19:42:50.904Z,14.80
2022-10-23T19:45:22.732Z,14.79
2022-10-23T19:47:53.174Z,14.78
2022-10-23T19:50:23.825Z,14.77
2022-10-23T19:52:54.797Z,14.76
2022-10-23T19:55:25.226Z,14.76
2022-10-23T19:57:56.069Z,14.75
2022-10-23T20:00:28.145Z,14.74
2022-10-23T20:02:58.548Z,14.74
2022-10-23T20:05:29.160Z,14.73
2022-10-23T20:08:00.158Z,14.73
2022-10-23T20:10:30.989Z,14.72
2022-10-23T20:13:18.674Z,14.70
2022-10-23T20:15:50.766Z,14.68
2022-10-23T20:18:21.548Z,14.67
2022-10-23T20:20:52.544Z,14.66
2022-10-23T20:23:23.177Z,14.65
2022-10-23T20:25:54.114Z,14.65
2022-10-23T20:28:24.525Z,14.65
2022-10-23T20:30:57.197Z,14.64
2022-10-23T20:33:27.880Z,14.63
2022-10-23T20:35:58.912Z,14.64
2022-10-23T20:38:29.900Z,14.63
2022-10-23T20:41:05.738Z,14.62
2022-10-23T20:43:36.605Z,14.60
2022-10-23T20:46:09.275Z,14.57
2022-10-23T20:48:41.286Z,14.55
2022-10-23T20:51:13.838Z,14.54
2022-10-23T20:53:45.620Z,14.54
2022-10-23T20:56:17.999Z,14.54
2022-10-23T20:58:48.827Z,14.54
2022-10-23T21:01:20.630Z,14.53
2022-10-23T21:03:56.101Z,14.53
2022-10-23T21:06:31.542Z,14.54
2022-10-23T21:11:39.984Z,14.51
2022-10-23T21:14:10.831Z,14.50
2022-10-23T21:16:44.408Z,14.49
2022-10-23T21:19:16.165Z,14.48
2022-10-23T21:21:46.735Z,14.45
2022-10-23T21:24:18.558Z,14.43
2022-10-23T21:26:49.059Z,14.42
2022-10-23T21:29:20.356Z,14.41
2022-10-23T21:31:56.595Z,14.41
2022-10-23T21:34:28.261Z,14.41
2022-10-23T21:37:12.573Z,14.39
2022-10-23T21:39:45.265Z,14.39
2022-10-23T21:42:16.275Z,14.37
2022-10-23T21:44:46.836Z,14.36
2022-10-23T21:47:17.641Z,14.35
2022-10-23T21:49:48.278Z,14.35
2022-10-23T21:52:19.889Z,14.35
2022-10-23T21:54:54.833Z,14.34
2022-10-23T21:57:25.334Z,14.33
2022-10-23T21:59:56.915Z,14.31
2022-10-23T22:02:27.911Z,14.27
2022-10-23T22:04:58.353Z,14.27
2022-10-23T22:10:05.081Z,14.20
2022-10-23T22:12:35.493Z,14.17
2022-10-23T22:15:08.056Z,14.13
2022-10-23T22:17:38.896Z,14.11
2022-10-23T22:20:11.141Z,14.08
2022-10-23T22:22:41.959Z,14.06
2022-10-23T22:25:12.597Z,14.02
2022-10-23T22:27:43.240Z,14.01
2022-10-23T22:30:15.360Z,13.98
2022-10-23T22:32:46.362Z,13.96
2022-10-23T22:35:17.517Z,13.94
2022-10-23T22:37:48.615Z,13.92
2022-10-23T22:40:19.300Z,13.90
2022-10-23T22:42:49.706Z,13.88
2022-10-23T22:45:20.517Z,13.85
2022-10-23T22:47:50.989Z,13.82
2022-10-23T22:50:21.477Z,13.81
2022-10-23T22:52:52.220Z,13.77
2022-10-23T22:55:22.885Z,13.75
2022-10-23T22:57:53.312Z,13.71
2022-10-23T23:00:23.809Z,13.68
2022-10-23T23:02:55.067Z,13.65
2022-10-23T23:05:25.739Z,13.62
2022-10-23T23:07:56.508Z,13.59
2022-10-23T23:10:27.450Z,13.56
2022-10-23T23:12:58.371Z,13.53
2022-10-23T23:15:29.393Z,13.51
2022-10-23T23:18:00.060Z,13.47
2022-10-23T23:20:31.283Z,13.44
2022-10-23T23:23:01.692Z,13.42
2022-10-23T23:25:32.641Z,13.42
2022-10-23T23:28:03.483Z,13.40
2022-10-23T23:30:34.151Z,13.36
2022-10-23T23:33:04.953Z,13.31
2022-10-23T23:35:35.682Z,13.32
2022-10-23T23:38:06.116Z,13.28
2022-10-23T23:40:36.654Z,13.25
2022-10-23T23:43:07.416Z,13.22
2022-10-23T23:45:38.554Z,13.19
2022-10-23T23:48:09.693Z,13.17
2022-10-23T23:50:40.137Z,13.16
2022-10-23T23:53:11.225Z,13.13
2022-10-23T23:58:18.406Z,13.09
